map of ADZ home
Great Circle Mapper logo
ADZ - Airport
Location
City:  San Andrés Island, Colombia
Name:Gustavo Rojas Pinilla International Airport
Old (Alt.):Sesquicentenario
ICAO / IATA:SKSP / ADZ

Details
Type:Airport (Aerodrome, Airfield)
Use:International (customs port of entry)
Latitude:12°35'01"N (12.583683)
Longitude:81°42'39"W (-81.710918)
Elevation:19 ft (6 m)
Runways:1
Longest:7808 × 148 ft (2380 × 45 m), paved

Time
Time Zone:UTC-5
Local Time:

Weather
METAR:SKSP 241600Z 08010KT 9999 FEW014 SCT200 28/26 A2986
TAF:SKSP 241600Z 2418/2518 08012KT 9999 FEW017 SCT200
TEMPO 2419/2423 09010KT FEW020 PROB30 2418/2422 DZ SCT018
TEMPO 2501/2505 -DZ
TEMPO 2509/2514 SCT017TCU TX30/2418Z TN26/2511Z

Related Locations
Nearby:
Farthest:CCK: 12346 mi / 19868 km
West Island (Pulau Panjang) [Cocos (Keeling) Islands], CC

Find:

   beyond  
but within

Other Information
Maps:
NOTAMs:
Links:
Sources:

  
flag of Colombia   

Sectional Chart

Flight Planning
at skyvector.com

Satellite Image

Google Maps Satellite View

 

Copyright © 2004-2014 Karl L. Swartz. All rights reserved.
The Great Circle Mapper name and logo are trademarks of the Great Circle Mapper.
All other trademarks mentioned herein belong to their respective owners.
Please see credits for attibutions and further copyright information.

  Follow gcmap on Facebook Follow gcmap on Twitter

hCard Microformat

Geo Microformat